createdAt,value
2019-01-12T00:00:07.304Z,3.25
2019-01-12T00:02:34.510Z,2.92
2019-01-12T00:05:01.726Z,2.98
2019-01-12T00:07:28.938Z,3.08
2019-01-12T00:09:56.150Z,3.42
2019-01-12T00:12:23.370Z,3.25
2019-01-12T00:14:50.583Z,2.47
2019-01-12T00:17:17.786Z,2.75
2019-01-12T00:19:45.006Z,2.72
2019-01-12T00:22:12.218Z,2.35
2019-01-12T00:24:39.451Z,2.77
2019-01-12T00:27:06.662Z,3.00
2019-01-12T00:29:33.878Z,2.20
2019-01-12T00:32:01.081Z,3.00
2019-01-12T00:34:28.298Z,2.87
2019-01-12T00:36:55.517Z,2.92
2019-01-12T00:39:22.848Z,2.70
2019-01-12T00:41:50.042Z,2.30
2019-01-12T00:44:17.256Z,3.90
2019-01-12T00:46:44.462Z,3.00
2019-01-12T00:49:11.686Z,3.15
2019-01-12T00:51:38.926Z,2.35
2019-01-12T00:54:06.145Z,2.37
2019-01-12T00:56:33.377Z,2.33
2019-01-12T00:59:00.946Z,2.83
2019-01-12T01:01:28.141Z,1.72
2019-01-12T01:03:55.429Z,1.90
2019-01-12T01:06:22.682Z,2.30
2019-01-12T01:08:49.893Z,2.77
2019-01-12T01:11:17.110Z,2.40
2019-01-12T01:13:44.322Z,2.17
2019-01-12T01:16:11.534Z,1.80
2019-01-12T01:18:38.749Z,2.02
2019-01-12T01:21:06.038Z,2.60
2019-01-12T01:23:33.251Z,2.08
2019-01-12T01:26:00.463Z,2.40
2019-01-12T01:28:27.678Z,2.58
2019-01-12T01:30:54.891Z,2.30
2019-01-12T01:33:27.875Z,2.15
2019-01-12T01:35:51.106Z,2.37
2019-01-12T01:38:18.321Z,2.80
2019-01-12T01:40:45.542Z,2.05
2019-01-12T01:43:12.745Z,2.30
2019-01-12T01:45:39.958Z,2.25
2019-01-12T01:48:07.210Z,2.20
2019-01-12T01:50:34.509Z,1.77
2019-01-12T01:53:01.710Z,2.30
2019-01-12T01:55:28.931Z,1.90
2019-01-12T01:57:56.147Z,2.27
2019-01-12T02:00:23.372Z,1.87
2019-01-12T02:02:50.588Z,1.92
2019-01-12T02:05:17.803Z,2.10
2019-01-12T02:07:45.011Z,1.47
2019-01-12T02:10:14.714Z,2.02
2019-01-12T02:12:41.923Z,1.57
2019-01-12T02:15:10.406Z,1.15
2019-01-12T02:17:37.622Z,1.45
2019-01-12T02:20:05.201Z,2.40
2019-01-12T02:22:32.416Z,1.85
2019-01-12T02:25:00.110Z,1.17
2019-01-12T02:27:27.614Z,1.92
2019-01-12T02:29:54.822Z,2.00
2019-01-12T02:32:22.044Z,1.65
2019-01-12T02:34:49.255Z,2.15
2019-01-12T02:37:16.491Z,1.45
2019-01-12T02:39:43.703Z,1.60
2019-01-12T02:42:10.919Z,1.65
2019-01-12T02:44:38.132Z,1.35
2019-01-12T02:47:05.347Z,1.60
2019-01-12T02:49:32.559Z,1.57
2019-01-12T02:51:59.773Z,1.32
2019-01-12T02:54:26.988Z,1.98
2019-01-12T02:56:54.220Z,1.37
2019-01-12T02:59:21.423Z,1.57
2019-01-12T03:01:48.703Z,1.40
2019-01-12T03:04:15.907Z,1.50
2019-01-12T03:06:43.136Z,2.10
2019-01-12T03:09:10.335Z,1.55
2019-01-12T03:11:37.555Z,1.77
2019-01-12T03:14:04.762Z,1.62
2019-01-12T03:16:31.979Z,0.88
2019-01-12T03:18:59.181Z,2.15
2019-01-12T03:21:26.402Z,1.62
2019-01-12T03:23:53.610Z,2.55
2019-01-12T03:26:20.835Z,1.40
2019-01-12T03:28:48.042Z,1.17
2019-01-12T03:31:15.264Z,1.67
2019-01-12T03:33:42.468Z,2.20
2019-01-12T03:36:09.679Z,1.87
2019-01-12T03:38:36.903Z,1.17
2019-01-12T03:41:04.107Z,1.80
2019-01-12T03:43:31.327Z,1.72
2019-01-12T03:45:58.535Z,1.60
2019-01-12T03:48:25.750Z,1.98
2019-01-12T03:50:52.960Z,2.35
2019-01-12T03:53:20.174Z,1.85
2019-01-12T03:55:47.382Z,1.40
2019-01-12T03:58:14.601Z,1.65
2019-01-12T04:00:41.809Z,1.50
2019-01-12T04:03:09.024Z,1.27
2019-01-12T04:05:36.231Z,1.20
2019-01-12T04:08:03.719Z,1.37
2019-01-12T04:10:30.932Z,1.90
2019-01-12T04:12:58.150Z,1.60
2019-01-12T04:15:25.360Z,1.42
2019-01-12T04:17:52.580Z,1.37
2019-01-12T04:20:19.872Z,2.12
2019-01-12T04:22:47.147Z,2.12
2019-01-12T04:25:14.427Z,2.02
2019-01-12T04:27:41.638Z,1.85
2019-01-12T04:30:10.398Z,1.85
2019-01-12T04:32:37.611Z,1.60
2019-01-12T04:35:05.487Z,1.35
2019-01-12T04:37:32.715Z,1.80
2019-01-12T04:40:00.274Z,1.87
2019-01-12T04:42:27.490Z,1.52
2019-01-12T04:44:54.699Z,1.67
2019-01-12T04:47:21.917Z,1.07
2019-01-12T04:49:49.130Z,1.40
2019-01-12T04:52:16.338Z,1.10
2019-01-12T04:54:43.553Z,1.05
2019-01-12T04:57:10.760Z,1.52
2019-01-12T04:59:37.967Z,1.40
2019-01-12T05:02:05.177Z,1.20
2019-01-12T05:04:32.396Z,1.22
2019-01-12T05:06:59.609Z,1.25
2019-01-12T05:09:26.843Z,1.32
2019-01-12T05:11:54.107Z,1.30
2019-01-12T05:14:21.318Z,1.47
2019-01-12T05:16:48.534Z,1.40
2019-01-12T05:19:15.750Z,1.15
2019-01-12T05:21:42.959Z,1.17
2019-01-12T05:24:10.178Z,1.30
2019-01-12T05:26:37.398Z,1.40
2019-01-12T05:29:04.602Z,1.85
2019-01-12T05:31:31.815Z,1.55
2019-01-12T05:33:59.026Z,1.50
2019-01-12T05:36:26.234Z,1.55
2019-01-12T05:38:53.446Z,1.40
2019-01-12T05:41:20.660Z,1.90
2019-01-12T05:43:47.874Z,2.12
2019-01-12T05:46:15.149Z,2.58
2019-01-12T05:48:42.371Z,2.20
2019-01-12T05:51:09.575Z,2.87
2019-01-12T05:53:36.787Z,1.80
2019-01-12T05:56:04.067Z,2.25
2019-01-12T05:58:31.291Z,2.80
2019-01-12T06:00:58.499Z,1.92
2019-01-12T06:03:25.714Z,2.40
2019-01-12T06:05:52.922Z,1.77
2019-01-12T06:08:20.131Z,2.15
2019-01-12T06:10:47.350Z,2.20
2019-01-12T06:13:14.554Z,2.10
2019-01-12T06:15:41.774Z,2.50
2019-01-12T06:18:08.982Z,2.60
2019-01-12T06:20:36.199Z,2.47
2019-01-12T06:23:03.410Z,2.42
2019-01-12T06:25:30.670Z,2.85
2019-01-12T06:27:57.923Z,2.33
2019-01-12T06:30:25.134Z,2.60
2019-01-12T06:32:52.342Z,2.47
2019-01-12T06:35:19.560Z,2.55
2019-01-12T06:37:46.775Z,3.62
2019-01-12T06:40:15.070Z,3.87
2019-01-12T06:42:42.287Z,2.62
2019-01-12T06:45:10.872Z,3.08
2019-01-12T06:47:38.087Z,2.47
2019-01-12T06:50:06.842Z,2.60
2019-01-12T06:52:34.046Z,3.52
2019-01-12T06:55:01.271Z,2.75
2019-01-12T06:57:28.474Z,3.95
2019-01-12T06:59:55.694Z,2.92
2019-01-12T07:02:22.908Z,3.05
2019-01-12T07:04:50.127Z,4.50
2019-01-12T07:07:17.342Z,3.60
2019-01-12T07:09:44.562Z,2.83
2019-01-12T07:12:11.780Z,3.47
2019-01-12T07:14:39.002Z,3.85
2019-01-12T07:17:06.202Z,2.77
2019-01-12T07:19:33.422Z,4.45
2019-01-12T07:22:00.626Z,3.33
2019-01-12T07:24:27.842Z,2.90
2019-01-12T07:26:55.050Z,3.67
2019-01-12T07:29:22.267Z,3.60
2019-01-12T07:31:49.485Z,2.92
2019-01-12T07:34:16.692Z,3.02
2019-01-12T07:36:43.901Z,3.75
2019-01-12T07:39:11.110Z,3.87
2019-01-12T07:41:38.334Z,3.35
2019-01-12T07:44:05.549Z,4.20
2019-01-12T07:46:32.762Z,4.25
2019-01-12T07:48:59.978Z,3.60
2019-01-12T07:51:27.267Z,4.70
2019-01-12T07:53:54.469Z,3.90
2019-01-12T07:56:24.640Z,4.15
2019-01-12T07:58:50.624Z,3.75
2019-01-12T08:01:17.834Z,3.65
2019-01-12T08:03:45.046Z,3.92
2019-01-12T08:06:12.272Z,3.65
2019-01-12T08:08:39.486Z,3.50
2019-01-12T08:11:06.698Z,3.33
2019-01-12T08:13:33.913Z,4.10
2019-01-12T08:16:01.131Z,3.42
2019-01-12T08:18:28.343Z,3.40
2019-01-12T08:20:55.575Z,3.45
2019-01-12T08:23:22.771Z,2.92
2019-01-12T08:25:49.983Z,3.50
2019-01-12T08:28:17.231Z,3.35
2019-01-12T08:30:44.502Z,2.47
2019-01-12T08:33:11.715Z,3.12
2019-01-12T08:35:38.939Z,2.80
2019-01-12T08:38:06.147Z,2.95
2019-01-12T08:40:33.381Z,3.00
2019-01-12T08:43:00.586Z,4.20
2019-01-12T08:45:27.804Z,3.67
2019-01-12T08:47:55.011Z,3.62
2019-01-12T08:50:22.280Z,3.92
2019-01-12T08:52:49.486Z,3.90
2019-01-12T08:55:16.691Z,4.00
2019-01-12T08:57:43.911Z,4.35
2019-01-12T09:00:12.799Z,3.45
2019-01-12T09:02:40.014Z,2.72
2019-01-12T09:05:07.301Z,3.60
2019-01-12T09:07:34.519Z,4.20
2019-01-12T09:10:01.732Z,4.10
2019-01-12T09:12:28.946Z,4.65
2019-01-12T09:14:56.162Z,4.95
2019-01-12T09:17:23.374Z,4.28
2019-01-12T09:19:50.587Z,3.30
2019-01-12T09:22:17.808Z,4.10
2019-01-12T09:24:45.016Z,3.42
2019-01-12T09:27:12.302Z,3.17
2019-01-12T09:29:39.510Z,3.35
2019-01-12T09:32:06.727Z,3.15
2019-01-12T09:34:33.983Z,2.52
2019-01-12T09:37:01.230Z,3.47
2019-01-12T09:39:28.438Z,3.80
2019-01-12T09:41:55.654Z,4.42
2019-01-12T09:44:22.866Z,4.65
2019-01-12T09:46:50.102Z,4.60
2019-01-12T09:49:17.326Z,2.55
2019-01-12T09:51:44.540Z,2.80
2019-01-12T09:54:11.746Z,3.45
2019-01-12T09:56:38.970Z,3.17
2019-01-12T09:59:06.184Z,2.70
2019-01-12T10:01:33.398Z,2.87
2019-01-12T10:04:00.615Z,3.45
2019-01-12T10:06:27.826Z,3.60
2019-01-12T10:08:55.034Z,3.45
2019-01-12T10:11:22.250Z,3.25
2019-01-12T10:13:49.459Z,2.15
2019-01-12T10:16:16.670Z,2.83
2019-01-12T10:18:43.895Z,2.70
2019-01-12T10:21:11.110Z,2.52
2019-01-12T10:23:38.326Z,3.27
2019-01-12T10:26:05.546Z,2.70
2019-01-12T10:28:32.753Z,1.92
2019-01-12T10:30:59.961Z,2.35
2019-01-12T10:33:27.177Z,2.80
2019-01-12T10:35:54.386Z,1.62
2019-01-12T10:38:21.871Z,2.80
2019-01-12T10:40:49.084Z,2.60
2019-01-12T10:43:16.561Z,2.35
2019-01-12T10:45:43.774Z,3.08
2019-01-12T10:48:11.007Z,2.50
2019-01-12T10:50:38.222Z,2.80
2019-01-12T10:53:05.430Z,1.92
2019-01-12T10:55:32.643Z,3.27
2019-01-12T10:57:59.867Z,2.15
2019-01-12T11:00:28.718Z,2.37
2019-01-12T11:02:55.938Z,2.27
2019-01-12T11:05:23.215Z,2.33
2019-01-12T11:07:50.427Z,2.35
2019-01-12T11:10:17.784Z,2.70
2019-01-12T11:12:45.066Z,2.67
2019-01-12T11:15:13.754Z,4.00
2019-01-12T11:17:40.974Z,3.37
2019-01-12T11:20:08.864Z,2.85
2019-01-12T11:22:36.090Z,3.42
2019-01-12T11:25:04.774Z,2.55
2019-01-12T11:27:31.995Z,2.15
2019-01-12T11:29:59.204Z,2.87
2019-01-12T11:32:26.418Z,3.05
2019-01-12T11:34:53.622Z,2.40
2019-01-12T11:37:20.843Z,2.72
2019-01-12T11:39:48.054Z,3.10
2019-01-12T11:42:15.262Z,2.37
2019-01-12T11:44:42.907Z,2.70
2019-01-12T11:47:10.118Z,3.33
2019-01-12T11:49:37.340Z,2.90
2019-01-12T11:52:04.547Z,2.67
2019-01-12T11:54:31.783Z,3.20
2019-01-12T11:56:59.034Z,3.08
2019-01-12T11:59:26.250Z,2.95
2019-01-12T12:01:53.458Z,3.55
2019-01-12T12:04:20.675Z,3.60
2019-01-12T12:06:47.883Z,2.62
2019-01-12T12:09:15.098Z,3.25
2019-01-12T12:11:42.311Z,2.70
2019-01-12T12:14:09.531Z,2.80
2019-01-12T12:16:36.738Z,3.15
2019-01-12T12:19:04.026Z,2.58
2019-01-12T12:21:31.238Z,2.85
2019-01-12T12:23:58.455Z,2.42
2019-01-12T12:26:25.695Z,3.02
2019-01-12T12:28:52.920Z,2.75
2019-01-12T12:31:20.146Z,2.77
2019-01-12T12:33:47.349Z,2.95
2019-01-12T12:36:14.910Z,2.50
2019-01-12T12:38:42.132Z,2.75
2019-01-12T12:41:09.340Z,2.95
2019-01-12T12:43:36.560Z,3.00
2019-01-12T12:46:04.038Z,2.60
2019-01-12T12:48:31.255Z,3.30
2019-01-12T12:50:58.461Z,2.92
2019-01-12T12:53:25.681Z,2.83
2019-01-12T12:55:52.959Z,3.80
2019-01-12T12:58:20.177Z,3.87
2019-01-12T13:00:47.382Z,4.25
2019-01-12T13:03:14.602Z,3.60
2019-01-12T13:05:41.818Z,3.08
2019-01-12T13:08:09.030Z,4.40
2019-01-12T13:10:36.246Z,3.42
2019-01-12T13:13:03.730Z,3.98
2019-01-12T13:15:31.025Z,3.15
2019-01-12T13:17:58.234Z,3.72
2019-01-12T13:20:25.454Z,4.03
2019-01-12T13:22:52.666Z,3.80
2019-01-12T13:25:19.884Z,4.22
2019-01-12T13:27:47.163Z,4.30
2019-01-12T13:30:15.927Z,3.92
2019-01-12T13:32:43.139Z,4.12
2019-01-12T13:35:10.431Z,4.55
2019-01-12T13:37:37.656Z,3.83
2019-01-12T13:40:06.646Z,5.15
2019-01-12T13:42:33.867Z,3.58
2019-01-12T13:45:01.082Z,3.83
2019-01-12T13:47:28.292Z,4.28
2019-01-12T13:49:55.510Z,2.75
2019-01-12T13:52:22.718Z,3.80
2019-01-12T13:54:49.931Z,4.20
2019-01-12T13:57:17.150Z,4.15
2019-01-12T13:59:44.374Z,4.37
2019-01-12T14:02:11.650Z,3.40
2019-01-12T14:04:38.879Z,3.08
2019-01-12T14:07:06.082Z,2.77
2019-01-12T14:09:33.303Z,2.83
2019-01-12T14:12:00.523Z,2.62
2019-01-12T14:14:27.735Z,2.17
2019-01-12T14:16:54.948Z,2.22
2019-01-12T14:19:22.162Z,2.67
2019-01-12T14:21:49.371Z,2.55
2019-01-12T14:24:16.580Z,1.90
2019-01-12T14:26:43.799Z,2.08
2019-01-12T14:29:11.014Z,2.85
2019-01-12T14:31:38.226Z,3.20
2019-01-12T14:34:05.438Z,2.40
2019-01-12T14:36:32.655Z,4.25
2019-01-12T14:38:59.870Z,3.30
2019-01-12T14:41:27.087Z,3.33
2019-01-12T14:43:54.311Z,2.30
2019-01-12T14:46:21.519Z,4.20
2019-01-12T14:48:48.726Z,4.95
2019-01-12T14:51:15.942Z,2.65
2019-01-12T14:53:43.146Z,3.17
2019-01-12T14:56:10.379Z,4.50
2019-01-12T14:58:37.587Z,3.67
2019-01-12T15:01:04.854Z,2.90
2019-01-12T15:03:32.094Z,2.37
2019-01-12T15:05:59.314Z,2.47
2019-01-12T15:08:26.519Z,3.95
2019-01-12T15:10:53.742Z,3.30
2019-01-12T15:13:20.972Z,2.65
2019-01-12T15:15:48.182Z,2.67
2019-01-12T15:18:15.391Z,2.45
2019-01-12T15:20:42.606Z,3.10
2019-01-12T15:23:09.818Z,3.65
2019-01-12T15:25:37.067Z,2.15
2019-01-12T15:28:09.064Z,2.52
2019-01-12T15:30:33.273Z,2.40
2019-01-12T15:33:00.479Z,2.85
2019-01-12T15:35:28.962Z,2.47
2019-01-12T15:37:56.166Z,2.40
2019-01-12T15:40:23.392Z,3.00
2019-01-12T15:42:50.598Z,2.10
2019-01-12T15:45:19.274Z,2.65
2019-01-12T15:47:46.497Z,3.10
2019-01-12T15:50:15.075Z,2.62
2019-01-12T15:52:42.286Z,2.72
2019-01-12T15:55:09.491Z,2.80
2019-01-12T15:57:36.715Z,3.65
2019-01-12T16:00:05.530Z,3.15
2019-01-12T16:02:39.705Z,3.02
2019-01-12T16:05:01.684Z,4.67
2019-01-12T16:07:28.902Z,2.30
2019-01-12T16:09:56.111Z,3.10
2019-01-12T16:12:23.327Z,3.70
2019-01-12T16:14:50.538Z,2.47
2019-01-12T16:17:17.758Z,2.42
2019-01-12T16:19:44.967Z,3.00
2019-01-12T16:22:12.183Z,3.42
2019-01-12T16:24:39.401Z,3.75
2019-01-12T16:27:06.670Z,3.10
2019-01-12T16:29:33.878Z,2.67
2019-01-12T16:32:01.102Z,2.30
2019-01-12T16:34:28.312Z,2.22
2019-01-12T16:36:55.527Z,2.12
2019-01-12T16:39:22.743Z,2.55
2019-01-12T16:41:49.959Z,2.08
2019-01-12T16:44:17.170Z,2.33
2019-01-12T16:46:44.390Z,2.62
2019-01-12T16:49:11.599Z,2.08
2019-01-12T16:51:39.042Z,1.85
2019-01-12T16:54:06.266Z,1.87
2019-01-12T16:56:33.482Z,1.80
2019-01-12T16:59:00.696Z,1.80
2019-01-12T17:01:27.910Z,2.22
2019-01-12T17:03:55.122Z,1.57
2019-01-12T17:06:22.338Z,1.85
2019-01-12T17:08:49.555Z,1.35
2019-01-12T17:11:16.766Z,1.62
2019-01-12T17:13:43.978Z,1.70
2019-01-12T17:16:11.187Z,1.47
2019-01-12T17:18:38.398Z,2.00
2019-01-12T17:21:05.612Z,1.90
2019-01-12T17:23:32.830Z,1.85
2019-01-12T17:26:00.034Z,2.20
2019-01-12T17:28:27.277Z,2.02
2019-01-12T17:30:54.486Z,2.10
2019-01-12T17:33:21.703Z,2.85
2019-01-12T17:35:48.915Z,2.02
2019-01-12T17:38:16.148Z,1.42
2019-01-12T17:40:43.342Z,1.62
2019-01-12T17:43:10.567Z,2.55
2019-01-12T17:45:37.774Z,2.80
2019-01-12T17:48:04.994Z,2.37
2019-01-12T17:50:32.378Z,3.08
2019-01-12T17:52:59.602Z,1.37
2019-01-12T17:55:26.810Z,2.00
2019-01-12T17:57:54.025Z,1.82
2019-01-12T18:00:26.374Z,1.50
2019-01-12T18:02:53.589Z,2.27
2019-01-12T18:05:20.798Z,1.80
2019-01-12T18:07:48.005Z,1.60
2019-01-12T18:10:15.682Z,2.30
2019-01-12T18:12:42.904Z,1.72
2019-01-12T18:15:11.885Z,1.00
2019-01-12T18:17:39.103Z,1.77
2019-01-12T18:20:10.790Z,1.17
2019-01-12T18:22:40.578Z,1.10
2019-01-12T18:25:09.262Z,1.17
2019-01-12T18:27:36.482Z,1.65
2019-01-12T18:30:05.230Z,1.60
2019-01-12T18:32:32.446Z,1.42
2019-01-12T18:34:59.647Z,1.47
2019-01-12T18:37:26.854Z,1.37
2019-01-12T18:39:54.066Z,1.15
2019-01-12T18:42:21.275Z,1.25
2019-01-12T18:44:48.491Z,1.45
2019-01-12T18:47:15.698Z,1.42
2019-01-12T18:49:42.919Z,0.88
2019-01-12T18:52:10.122Z,1.00
2019-01-12T18:54:37.334Z,1.00
2019-01-12T18:57:04.548Z,1.25
2019-01-12T18:59:31.758Z,1.42
2019-01-12T19:01:58.970Z,1.77
2019-01-12T19:04:26.195Z,1.72
2019-01-12T19:06:53.411Z,0.78
2019-01-12T19:09:20.635Z,0.80
2019-01-12T19:11:47.844Z,1.10
2019-01-12T19:14:15.079Z,1.00
2019-01-12T19:16:42.269Z,1.10
2019-01-12T19:19:09.486Z,1.27
2019-01-12T19:21:36.702Z,0.90
2019-01-12T19:24:03.981Z,0.82
2019-01-12T19:26:31.199Z,1.35
2019-01-12T19:28:58.406Z,1.10
2019-01-12T19:31:25.620Z,0.80
2019-01-12T19:33:52.910Z,0.98
2019-01-12T19:36:20.123Z,1.12
2019-01-12T19:38:47.341Z,0.80
2019-01-12T19:41:14.546Z,0.70
2019-01-12T19:43:41.762Z,1.32
2019-01-12T19:46:08.975Z,0.75
2019-01-12T19:48:36.191Z,0.82
2019-01-12T19:51:03.406Z,0.90
2019-01-12T19:53:30.627Z,0.95
2019-01-12T19:55:57.830Z,0.80
2019-01-12T19:58:26.097Z,0.70
2019-01-12T20:00:53.530Z,0.82
2019-01-12T20:03:20.755Z,0.50
2019-01-12T20:05:47.970Z,1.10
2019-01-12T20:08:15.187Z,0.60
2019-01-12T20:10:42.398Z,0.80
2019-01-12T20:13:09.606Z,0.55
2019-01-12T20:15:36.823Z,0.70
2019-01-12T20:18:04.402Z,0.57
2019-01-12T20:20:31.615Z,0.50
2019-01-12T20:22:58.827Z,0.75
2019-01-12T20:25:26.910Z,0.70
2019-01-12T20:27:54.127Z,1.07
2019-01-12T20:30:28.801Z,1.10
2019-01-12T20:33:00.463Z,0.85
2019-01-12T20:35:29.227Z,0.78
2019-01-12T20:38:00.715Z,0.98
2019-01-12T20:40:29.474Z,0.40
2019-01-12T20:43:14.466Z,1.45
2019-01-12T20:45:43.227Z,0.60
2019-01-12T20:48:11.978Z,0.72
2019-01-12T20:50:52.560Z,0.65
2019-01-12T20:53:21.302Z,0.40
2019-01-12T20:55:50.058Z,0.40
2019-01-12T20:58:18.802Z,0.57
2019-01-12T21:00:47.630Z,0.40
2019-01-12T21:03:33.047Z,0.60
2019-01-12T21:06:18.295Z,0.90
2019-01-12T21:08:49.705Z,0.60
2019-01-12T21:11:24.150Z,0.70
2019-01-12T21:13:55.731Z,0.72
2019-01-12T21:16:24.481Z,0.65
2019-01-12T21:18:51.686Z,0.50
2019-01-12T21:21:18.904Z,0.60
2019-01-12T21:23:46.114Z,0.82
2019-01-12T21:26:13.339Z,0.75
2019-01-12T21:28:40.542Z,0.80
2019-01-12T21:31:07.763Z,0.47
2019-01-12T21:33:34.970Z,0.60
2019-01-12T21:36:02.188Z,0.40
2019-01-12T21:38:29.406Z,0.50
2019-01-12T21:40:56.631Z,0.60
2019-01-12T21:43:23.838Z,0.40
2019-01-12T21:45:51.054Z,0.57
2019-01-12T21:48:18.259Z,0.50
2019-01-12T21:50:45.474Z,0.50
2019-01-12T21:53:12.686Z,0.65
2019-01-12T21:55:39.917Z,0.57
2019-01-12T21:58:07.120Z,0.50
2019-01-12T22:00:34.330Z,0.72
2019-01-12T22:03:01.545Z,0.60
2019-01-12T22:05:28.763Z,0.53
2019-01-12T22:07:55.970Z,0.60
2019-01-12T22:10:23.188Z,0.50
2019-01-12T22:12:50.392Z,0.40
2019-01-12T22:15:17.602Z,0.40
2019-01-12T22:17:44.814Z,0.45
2019-01-12T22:20:13.498Z,0.50
2019-01-12T22:22:40.975Z,0.30
2019-01-12T22:25:08.478Z,0.42
2019-01-12T22:27:35.687Z,0.60
2019-01-12T22:30:02.969Z,0.30
2019-01-12T22:32:30.182Z,0.50
2019-01-12T22:34:57.390Z,0.50
2019-01-12T22:37:24.610Z,0.40
2019-01-12T22:39:51.814Z,0.60
2019-01-12T22:42:19.034Z,0.57
2019-01-12T22:44:46.270Z,0.60
2019-01-12T22:47:13.490Z,0.40
2019-01-12T22:49:40.698Z,0.62
2019-01-12T22:52:07.918Z,0.57
2019-01-12T22:54:35.128Z,0.70
2019-01-12T22:57:02.351Z,0.50
2019-01-12T22:59:29.631Z,0.62
2019-01-12T23:01:57.212Z,0.70
2019-01-12T23:04:24.435Z,0.72
2019-01-12T23:06:51.650Z,0.50
2019-01-12T23:09:18.858Z,0.40
2019-01-12T23:11:46.098Z,0.45
2019-01-12T23:14:13.302Z,0.55
2019-01-12T23:16:40.518Z,0.40
2019-01-12T23:19:07.728Z,0.30
2019-01-12T23:21:34.942Z,0.37
2019-01-12T23:24:02.159Z,0.57
2019-01-12T23:26:29.394Z,0.40
2019-01-12T23:28:56.614Z,0.40
2019-01-12T23:31:23.826Z,1.10
2019-01-12T23:33:51.034Z,0.40
2019-01-12T23:36:18.254Z,0.60
2019-01-12T23:38:45.462Z,0.40
2019-01-12T23:41:12.681Z,0.40
2019-01-12T23:43:39.898Z,0.55
2019-01-12T23:46:07.117Z,0.50
2019-01-12T23:48:34.326Z,0.40
2019-01-12T23:51:01.546Z,0.68
2019-01-12T23:53:28.758Z,0.50
2019-01-12T23:55:55.968Z,0.30
2019-01-12T23:58:23.186Z,0.30
